sensor_id;sensor_type;location;lat;lon;timestamp;temperature;humidity
31991;DHT22;18508;49.386;8.370;2024-01-27T00:02:00;3.10;1.00
31991;DHT22;18508;49.386;8.370;2024-01-27T00:04:28;3.20;1.00
31991;DHT22;18508;49.386;8.370;2024-01-27T00:06:57;2.70;43.00
31991;DHT22;18508;49.386;8.370;2024-01-27T00:09:25;3.20;59.80
31991;DHT22;18508;49.386;8.370;2024-01-27T00:11:55;2.60;24.10
31991;DHT22;18508;49.386;8.370;2024-01-27T00:14:23;2.40;52.10
31991;DHT22;18508;49.386;8.370;2024-01-27T00:16:51;2.50;89.00
31991;DHT22;18508;49.386;8.370;2024-01-27T00:19:20;2.50;99.90
31991;DHT22;18508;49.386;8.370;2024-01-27T00:21:50;2.70;99.90
31991;DHT22;18508;49.386;8.370;2024-01-27T00:24:19;2.40;99.90
31991;DHT22;18508;49.386;8.370;2024-01-27T00:26:47;2.20;99.90
31991;DHT22;18508;49.386;8.370;2024-01-27T00:29:18;2.60;99.90
31991;DHT22;18508;49.386;8.370;2024-01-27T00:31:46;2.20;99.90
31991;DHT22;18508;49.386;8.370;2024-01-27T00:34:16;2.20;99.90
31991;DHT22;18508;49.386;8.370;2024-01-27T00:36:44;2.50;99.90
31991;DHT22;18508;49.386;8.370;2024-01-27T00:39:16;1.90;99.90
31991;DHT22;18508;49.386;8.370;2024-01-27T00:41:44;2.20;99.90
31991;DHT22;18508;49.386;8.370;2024-01-27T00:44:12;2.60;99.90
31991;DHT22;18508;49.386;8.370;2024-01-27T00:46:42;2.00;99.90
31991;DHT22;18508;49.386;8.370;2024-01-27T00:49:10;2.70;99.90
31991;DHT22;18508;49.386;8.370;2024-01-27T00:51:41;1.70;99.90
31991;DHT22;18508;49.386;8.370;2024-01-27T00:54:09;1.60;99.90
31991;DHT22;18508;49.386;8.370;2024-01-27T00:56:41;1.50;99.90
31991;DHT22;18508;49.386;8.370;2024-01-27T00:59:10;2.10;99.90
31991;DHT22;18508;49.386;8.370;2024-01-27T01:01:38;1.80;99.90
31991;DHT22;18508;49.386;8.370;2024-01-27T01:04:09;2.20;99.90
31991;DHT22;18508;49.386;8.370;2024-01-27T01:06:39;1.70;99.90
31991;DHT22;18508;49.386;8.370;2024-01-27T01:09:07;1.80;99.90
31991;DHT22;18508;49.386;8.370;2024-01-27T01:14:06;1.50;99.90
31991;DHT22;18508;49.386;8.370;2024-01-27T01:16:34;1.80;99.90
31991;DHT22;18508;49.386;8.370;2024-01-27T01:19:02;1.80;99.90
31991;DHT22;18508;49.386;8.370;2024-01-27T01:21:32;1.50;99.90
31991;DHT22;18508;49.386;8.370;2024-01-27T01:26:31;1.70;99.90
31991;DHT22;18508;49.386;8.370;2024-01-27T01:28:59;1.40;99.90
31991;DHT22;18508;49.386;8.370;2024-01-27T01:31:28;1.10;99.90
31991;DHT22;18508;49.386;8.370;2024-01-27T01:33:56;1.60;99.90
31991;DHT22;18508;49.386;8.370;2024-01-27T01:38:56;1.10;99.90
31991;DHT22;18508;49.386;8.370;2024-01-27T01:41:25;1.70;99.90
31991;DHT22;18508;49.386;8.370;2024-01-27T01:46:22;1.20;99.90
31991;DHT22;18508;49.386;8.370;2024-01-27T01:48:51;1.40;99.90
31991;DHT22;18508;49.386;8.370;2024-01-27T01:51:20;0.90;99.90
31991;DHT22;18508;49.386;8.370;2024-01-27T01:53:49;1.20;99.90
31991;DHT22;18508;49.386;8.370;2024-01-27T01:56:18;1.40;99.90
31991;DHT22;18508;49.386;8.370;2024-01-27T01:58:46;1.30;99.90
31991;DHT22;18508;49.386;8.370;2024-01-27T02:01:17;1.00;99.90
31991;DHT22;18508;49.386;8.370;2024-01-27T02:03:52;0.90;99.90
31991;DHT22;18508;49.386;8.370;2024-01-27T02:06:21;0.60;99.90
31991;DHT22;18508;49.386;8.370;2024-01-27T02:08:51;0.90;99.90
31991;DHT22;18508;49.386;8.370;2024-01-27T02:11:23;0.70;99.90
31991;DHT22;18508;49.386;8.370;2024-01-27T02:13:51;1.00;99.90
31991;DHT22;18508;49.386;8.370;2024-01-27T02:16:19;0.90;99.90
31991;DHT22;18508;49.386;8.370;2024-01-27T02:18:48;3.70;99.90
31991;DHT22;18508;49.386;8.370;2024-01-27T02:21:16;0.80;99.90
31991;DHT22;18508;49.386;8.370;2024-01-27T02:26:16;0.70;99.90
31991;DHT22;18508;49.386;8.370;2024-01-27T02:36:09;0.90;99.90
31991;DHT22;18508;49.386;8.370;2024-01-27T02:38:38;0.40;99.90
31991;DHT22;18508;49.386;8.370;2024-01-27T02:41:06;0.50;99.90
31991;DHT22;18508;49.386;8.370;2024-01-27T02:43:36;0.80;99.90
31991;DHT22;18508;49.386;8.370;2024-01-27T02:46:07;0.60;99.90
31991;DHT22;18508;49.386;8.370;2024-01-27T02:51:05;0.80;99.90
31991;DHT22;18508;49.386;8.370;2024-01-27T02:56:02;0.70;99.90
31991;DHT22;18508;49.386;8.370;2024-01-27T02:58:30;0.30;99.90
31991;DHT22;18508;49.386;8.370;2024-01-27T03:01:00;0.20;99.90
31991;DHT22;18508;49.386;8.370;2024-01-27T03:03:28;0.20;99.90
31991;DHT22;18508;49.386;8.370;2024-01-27T03:05:57;0.40;99.90
31991;DHT22;18508;49.386;8.370;2024-01-27T03:08:26;-1.50;99.90
31991;DHT22;18508;49.386;8.370;2024-01-27T03:10:55;0.00;99.90
31991;DHT22;18508;49.386;8.370;2024-01-27T03:13:23;0.40;99.90
31991;DHT22;18508;49.386;8.370;2024-01-27T03:18:21;0.60;99.90
31991;DHT22;18508;49.386;8.370;2024-01-27T03:23:19;0.40;99.90
31991;DHT22;18508;49.386;8.370;2024-01-27T03:28:16;0.20;99.90
31991;DHT22;18508;49.386;8.370;2024-01-27T03:35:43;0.20;99.90
31991;DHT22;18508;49.386;8.370;2024-01-27T03:43:08;0.40;99.90
31991;DHT22;18508;49.386;8.370;2024-01-27T03:48:06;0.20;99.90
31991;DHT22;18508;49.386;8.370;2024-01-27T03:53:04;0.20;99.90
31991;DHT22;18508;49.386;8.370;2024-01-27T04:05:29;0.00;99.90
31991;DHT22;18508;49.386;8.370;2024-01-27T04:10:27;0.00;99.90
31991;DHT22;18508;49.386;8.370;2024-01-27T04:12:56;-0.10;99.90
31991;DHT22;18508;49.386;8.370;2024-01-27T04:17:53;0.20;99.90
31991;DHT22;18508;49.386;8.370;2024-01-27T04:20:22;0.60;99.90
31991;DHT22;18508;49.386;8.370;2024-01-27T04:22:50;-0.20;99.90
31991;DHT22;18508;49.386;8.370;2024-01-27T04:25:19;-0.10;99.90
31991;DHT22;18508;49.386;8.370;2024-01-27T04:27:49;0.00;99.90
31991;DHT22;18508;49.386;8.370;2024-01-27T04:35:19;-0.40;99.90
31991;DHT22;18508;49.386;8.370;2024-01-27T04:37:47;-0.40;99.90
31991;DHT22;18508;49.386;8.370;2024-01-27T04:45:16;0.40;99.90
31991;DHT22;18508;49.386;8.370;2024-01-27T04:55:10;-0.40;99.90
31991;DHT22;18508;49.386;8.370;2024-01-27T04:57:38;0.30;99.90
31991;DHT22;18508;49.386;8.370;2024-01-27T05:00:07;0.00;99.90
31991;DHT22;18508;49.386;8.370;2024-01-27T05:02:41;0.00;99.90
31991;DHT22;18508;49.386;8.370;2024-01-27T05:07:39;0.00;99.90
31991;DHT22;18508;49.386;8.370;2024-01-27T05:10:10;-0.30;99.90
31991;DHT22;18508;49.386;8.370;2024-01-27T05:12:42;-0.30;99.90
31991;DHT22;18508;49.386;8.370;2024-01-27T05:15:11;-0.20;99.90
31991;DHT22;18508;49.386;8.370;2024-01-27T05:20:15;-0.30;99.90
31991;DHT22;18508;49.386;8.370;2024-01-27T05:22:46;-0.50;99.90
31991;DHT22;18508;49.386;8.370;2024-01-27T05:25:14;-0.30;99.90
31991;DHT22;18508;49.386;8.370;2024-01-27T05:30:16;-0.20;99.90
31991;DHT22;18508;49.386;8.370;2024-01-27T05:32:45;-0.40;99.90
31991;DHT22;18508;49.386;8.370;2024-01-27T05:35:15;0.10;99.90
31991;DHT22;18508;49.386;8.370;2024-01-27T05:42:43;-0.40;99.90
31991;DHT22;18508;49.386;8.370;2024-01-27T05:45:12;-0.30;99.90
31991;DHT22;18508;49.386;8.370;2024-01-27T05:47:41;-0.20;99.90
31991;DHT22;18508;49.386;8.370;2024-01-27T05:50:10;-0.30;99.90
31991;DHT22;18508;49.386;8.370;2024-01-27T05:52:39;-0.30;99.90
31991;DHT22;18508;49.386;8.370;2024-01-27T05:55:08;-0.20;99.90
31991;DHT22;18508;49.386;8.370;2024-01-27T05:57:38;-0.50;99.90
31991;DHT22;18508;49.386;8.370;2024-01-27T06:00:07;-0.20;99.90
31991;DHT22;18508;49.386;8.370;2024-01-27T06:02:36;0.10;99.90
31991;DHT22;18508;49.386;8.370;2024-01-27T06:05:05;-0.30;99.90
31991;DHT22;18508;49.386;8.370;2024-01-27T06:07:39;-0.60;99.90
31991;DHT22;18508;49.386;8.370;2024-01-27T06:10:12;-0.70;99.90
31991;DHT22;18508;49.386;8.370;2024-01-27T06:15:09;-0.30;99.90
31991;DHT22;18508;49.386;8.370;2024-01-27T06:20:08;-0.60;99.90
31991;DHT22;18508;49.386;8.370;2024-01-27T06:25:09;-1.00;99.90
31991;DHT22;18508;49.386;8.370;2024-01-27T06:32:38;-0.40;99.90
31991;DHT22;18508;49.386;8.370;2024-01-27T06:35:07;-0.40;99.90
31991;DHT22;18508;49.386;8.370;2024-01-27T06:40:07;-0.70;99.90
31991;DHT22;18508;49.386;8.370;2024-01-27T06:42:37;-0.60;99.90
31991;DHT22;18508;49.386;8.370;2024-01-27T06:45:05;-0.30;99.90
31991;DHT22;18508;49.386;8.370;2024-01-27T06:50:04;-0.60;99.90
31991;DHT22;18508;49.386;8.370;2024-01-27T06:57:30;-0.60;99.90
31991;DHT22;18508;49.386;8.370;2024-01-27T06:59:59;-0.60;99.90
31991;DHT22;18508;49.386;8.370;2024-01-27T07:02:30;-0.60;99.90
31991;DHT22;18508;49.386;8.370;2024-01-27T07:07:28;-0.60;99.90
31991;DHT22;18508;49.386;8.370;2024-01-27T07:09:57;-0.40;99.90
31991;DHT22;18508;49.386;8.370;2024-01-27T07:12:26;-0.50;99.90
31991;DHT22;18508;49.386;8.370;2024-01-27T07:14:56;-0.50;99.90
31991;DHT22;18508;49.386;8.370;2024-01-27T07:17:29;-0.40;99.90
31991;DHT22;18508;49.386;8.370;2024-01-27T07:22:25;-0.40;99.90
31991;DHT22;18508;49.386;8.370;2024-01-27T07:24:54;-0.50;99.90
31991;DHT22;18508;49.386;8.370;2024-01-27T07:29:52;-0.10;99.90
31991;DHT22;18508;49.386;8.370;2024-01-27T07:32:22;-0.60;99.90
31991;DHT22;18508;49.386;8.370;2024-01-27T07:37:21;-0.60;99.90
31991;DHT22;18508;49.386;8.370;2024-01-27T07:49:46;-0.40;99.90
31991;DHT22;18508;49.386;8.370;2024-01-27T08:02:11;-0.40;99.90
31991;DHT22;18508;49.386;8.370;2024-01-27T08:04:39;0.00;99.90
31991;DHT22;18508;49.386;8.370;2024-01-27T08:07:11;-0.10;99.90
31991;DHT22;18508;49.386;8.370;2024-01-27T08:09:42;-0.40;99.90
31991;DHT22;18508;49.386;8.370;2024-01-27T08:17:07;-0.80;99.90
31991;DHT22;18508;49.386;8.370;2024-01-27T08:22:04;0.40;99.90
31991;DHT22;18508;49.386;8.370;2024-01-27T08:24:34;0.40;99.90
31991;DHT22;18508;49.386;8.370;2024-01-27T08:32:03;0.10;99.90
31991;DHT22;18508;49.386;8.370;2024-01-27T08:37:02;0.60;99.90
31991;DHT22;18508;49.386;8.370;2024-01-27T08:39:32;0.40;99.90
31991;DHT22;18508;49.386;8.370;2024-01-27T08:42:01;0.90;99.90
31991;DHT22;18508;49.386;8.370;2024-01-27T08:44:30;0.80;99.90
31991;DHT22;18508;49.386;8.370;2024-01-27T08:54:27;1.50;99.90
31991;DHT22;18508;49.386;8.370;2024-01-27T08:59:25;1.00;99.90
31991;DHT22;18508;49.386;8.370;2024-01-27T09:01:53;1.70;99.90
31991;DHT22;18508;49.386;8.370;2024-01-27T09:04:21;1.50;99.90
31991;DHT22;18508;49.386;8.370;2024-01-27T09:06:50;1.20;99.90
31991;DHT22;18508;49.386;8.370;2024-01-27T09:09:19;1.30;99.90
31991;DHT22;18508;49.386;8.370;2024-01-27T09:11:47;1.50;99.90
31991;DHT22;18508;49.386;8.370;2024-01-27T09:14:16;2.10;99.90
31991;DHT22;18508;49.386;8.370;2024-01-27T09:16:47;1.60;99.90
31991;DHT22;18508;49.386;8.370;2024-01-27T09:24:13;1.90;99.90
31991;DHT22;18508;49.386;8.370;2024-01-27T09:29:10;2.50;99.90
31991;DHT22;18508;49.386;8.370;2024-01-27T09:31:39;2.70;99.90
31991;DHT22;18508;49.386;8.370;2024-01-27T09:34:09;2.20;99.90
31991;DHT22;18508;49.386;8.370;2024-01-27T09:36:38;2.40;99.90
31991;DHT22;18508;49.386;8.370;2024-01-27T09:41:35;2.60;99.90
31991;DHT22;18508;49.386;8.370;2024-01-27T09:44:04;2.80;99.90
31991;DHT22;18508;49.386;8.370;2024-01-27T09:46:34;3.30;99.90
31991;DHT22;18508;49.386;8.370;2024-01-27T09:49:04;2.90;99.90
31991;DHT22;18508;49.386;8.370;2024-01-27T09:51:34;3.20;99.90
31991;DHT22;18508;49.386;8.370;2024-01-27T09:54:03;3.10;99.90
31991;DHT22;18508;49.386;8.370;2024-01-27T09:56:31;3.10;99.90
31991;DHT22;18508;49.386;8.370;2024-01-27T09:59:01;3.70;99.90
31991;DHT22;18508;49.386;8.370;2024-01-27T10:01:31;4.10;99.90
31991;DHT22;18508;49.386;8.370;2024-01-27T10:04:01;3.80;99.90
31991;DHT22;18508;49.386;8.370;2024-01-27T10:06:30;3.80;99.90
31991;DHT22;18508;49.386;8.370;2024-01-27T10:09:00;4.00;99.90
31991;DHT22;18508;49.386;8.370;2024-01-27T10:11:29;4.20;99.90
31991;DHT22;18508;49.386;8.370;2024-01-27T10:13:59;5.00;99.90
31991;DHT22;18508;49.386;8.370;2024-01-27T10:16:27;4.60;99.90
31991;DHT22;18508;49.386;8.370;2024-01-27T10:18:59;4.90;99.90
31991;DHT22;18508;49.386;8.370;2024-01-27T10:21:29;4.50;99.90
31991;DHT22;18508;49.386;8.370;2024-01-27T10:23:57;4.80;99.90
31991;DHT22;18508;49.386;8.370;2024-01-27T10:26:30;4.80;99.90
31991;DHT22;18508;49.386;8.370;2024-01-27T10:29:01;5.10;99.90
31991;DHT22;18508;49.386;8.370;2024-01-27T10:31:32;5.00;99.90
31991;DHT22;18508;49.386;8.370;2024-01-27T10:34:01;5.10;99.90
31991;DHT22;18508;49.386;8.370;2024-01-27T10:36:41;5.50;99.90
31991;DHT22;18508;49.386;8.370;2024-01-27T10:39:20;5.30;1.00
31991;DHT22;18508;49.386;8.370;2024-01-27T10:41:52;5.50;1.00
31991;DHT22;18508;49.386;8.370;2024-01-27T10:44:20;5.50;99.90
31991;DHT22;18508;49.386;8.370;2024-01-27T10:46:49;5.70;99.90
31991;DHT22;18508;49.386;8.370;2024-01-27T10:51:53;5.80;99.90
31991;DHT22;18508;49.386;8.370;2024-01-27T10:54:24;5.80;99.90
31991;DHT22;18508;49.386;8.370;2024-01-27T10:56:55;6.00;99.90
31991;DHT22;18508;49.386;8.370;2024-01-27T10:59:27;6.10;99.90
31991;DHT22;18508;49.386;8.370;2024-01-27T11:01:56;6.40;99.90
31991;DHT22;18508;49.386;8.370;2024-01-27T11:04:25;6.10;99.90
31991;DHT22;18508;49.386;8.370;2024-01-27T11:06:55;6.30;99.90
31991;DHT22;18508;49.386;8.370;2024-01-27T11:09:24;6.50;99.90
31991;DHT22;18508;49.386;8.370;2024-01-27T11:11:54;6.90;99.90
31991;DHT22;18508;49.386;8.370;2024-01-27T11:14:23;6.60;99.90
31991;DHT22;18508;49.386;8.370;2024-01-27T11:16:55;6.70;99.90
31991;DHT22;18508;49.386;8.370;2024-01-27T11:19:25;6.70;99.90
31991;DHT22;18508;49.386;8.370;2024-01-27T11:22:00;6.60;99.90
31991;DHT22;18508;49.386;8.370;2024-01-27T11:24:29;6.80;99.90
31991;DHT22;18508;49.386;8.370;2024-01-27T11:27:02;7.00;99.90
31991;DHT22;18508;49.386;8.370;2024-01-27T11:29:31;7.00;99.90
31991;DHT22;18508;49.386;8.370;2024-01-27T11:32:01;7.10;99.90
31991;DHT22;18508;49.386;8.370;2024-01-27T11:34:43;6.80;99.90
31991;DHT22;18508;49.386;8.370;2024-01-27T11:37:16;7.00;99.90
31991;DHT22;18508;49.386;8.370;2024-01-27T11:42:16;7.60;99.90
31991;DHT22;18508;49.386;8.370;2024-01-27T11:44:45;7.60;99.90
31991;DHT22;18508;49.386;8.370;2024-01-27T11:47:17;7.40;99.90
31991;DHT22;18508;49.386;8.370;2024-01-27T11:49:51;7.60;99.90
31991;DHT22;18508;49.386;8.370;2024-01-27T11:52:21;7.70;99.90
31991;DHT22;18508;49.386;8.370;2024-01-27T11:54:54;7.50;99.90
31991;DHT22;18508;49.386;8.370;2024-01-27T11:57:26;7.80;99.90
31991;DHT22;18508;49.386;8.370;2024-01-27T11:59:56;7.90;99.90
31991;DHT22;18508;49.386;8.370;2024-01-27T12:02:24;7.90;99.90
31991;DHT22;18508;49.386;8.370;2024-01-27T12:04:54;8.00;99.90
31991;DHT22;18508;49.386;8.370;2024-01-27T12:07:23;8.10;99.90
31991;DHT22;18508;49.386;8.370;2024-01-27T12:09:51;8.10;99.90
31991;DHT22;18508;49.386;8.370;2024-01-27T12:12:20;8.00;99.90
31991;DHT22;18508;49.386;8.370;2024-01-27T12:14:51;8.10;99.90
31991;DHT22;18508;49.386;8.370;2024-01-27T12:17:21;8.30;99.90
31991;DHT22;18508;49.386;8.370;2024-01-27T12:19:52;8.20;99.90
31991;DHT22;18508;49.386;8.370;2024-01-27T12:22:24;8.30;99.90
31991;DHT22;18508;49.386;8.370;2024-01-27T12:24:54;7.90;99.90
31991;DHT22;18508;49.386;8.370;2024-01-27T12:27:23;8.10;99.90
31991;DHT22;18508;49.386;8.370;2024-01-27T12:29:56;8.60;99.90
31991;DHT22;18508;49.386;8.370;2024-01-27T12:32:24;8.40;99.90
31991;DHT22;18508;49.386;8.370;2024-01-27T12:34:52;8.60;99.90
31991;DHT22;18508;49.386;8.370;2024-01-27T12:37:21;8.40;99.90
31991;DHT22;18508;49.386;8.370;2024-01-27T12:42:18;8.40;99.90
31991;DHT22;18508;49.386;8.370;2024-01-27T12:44:47;8.60;99.90
31991;DHT22;18508;49.386;8.370;2024-01-27T12:47:16;8.50;99.90
31991;DHT22;18508;49.386;8.370;2024-01-27T12:49:46;8.60;99.90
31991;DHT22;18508;49.386;8.370;2024-01-27T12:52:15;8.50;99.90
31991;DHT22;18508;49.386;8.370;2024-01-27T12:54:43;8.50;99.90
31991;DHT22;18508;49.386;8.370;2024-01-27T12:57:12;8.10;99.90
31991;DHT22;18508;49.386;8.370;2024-01-27T12:59:40;8.40;99.90
31991;DHT22;18508;49.386;8.370;2024-01-27T13:02:08;8.40;99.90
31991;DHT22;18508;49.386;8.370;2024-01-27T13:04:38;8.50;99.90
31991;DHT22;18508;49.386;8.370;2024-01-27T13:07:06;8.30;99.90
31991;DHT22;18508;49.386;8.370;2024-01-27T13:09:35;8.50;99.90
31991;DHT22;18508;49.386;8.370;2024-01-27T13:12:04;8.30;99.90
31991;DHT22;18508;49.386;8.370;2024-01-27T13:17:01;8.10;99.90
31991;DHT22;18508;49.386;8.370;2024-01-27T13:19:30;8.30;99.90
31991;DHT22;18508;49.386;8.370;2024-01-27T13:21:59;8.30;99.90
31991;DHT22;18508;49.386;8.370;2024-01-27T13:26:56;7.90;99.90
31991;DHT22;18508;49.386;8.370;2024-01-27T13:29:25;7.90;99.90
31991;DHT22;18508;49.386;8.370;2024-01-27T13:31:54;8.40;99.90
31991;DHT22;18508;49.386;8.370;2024-01-27T13:34:23;8.10;99.90
31991;DHT22;18508;49.386;8.370;2024-01-27T13:39:22;8.00;99.90
31991;DHT22;18508;49.386;8.370;2024-01-27T13:41:50;8.10;99.90
31991;DHT22;18508;49.386;8.370;2024-01-27T13:44:19;8.40;99.90
31991;DHT22;18508;49.386;8.370;2024-01-27T13:46:47;8.00;99.90
31991;DHT22;18508;49.386;8.370;2024-01-27T13:49:16;7.90;99.90
31991;DHT22;18508;49.386;8.370;2024-01-27T13:51:45;8.00;99.90
31991;DHT22;18508;49.386;8.370;2024-01-27T13:54:14;8.10;99.90
31991;DHT22;18508;49.386;8.370;2024-01-27T13:56:44;7.90;99.90
31991;DHT22;18508;49.386;8.370;2024-01-27T13:59:13;7.50;99.90
31991;DHT22;18508;49.386;8.370;2024-01-27T14:01:43;7.90;99.90
31991;DHT22;18508;49.386;8.370;2024-01-27T14:04:11;7.60;99.90
31991;DHT22;18508;49.386;8.370;2024-01-27T14:09:08;7.60;99.90
31991;DHT22;18508;49.386;8.370;2024-01-27T14:11:36;7.80;99.90
31991;DHT22;18508;49.386;8.370;2024-01-27T14:14:05;7.60;99.90
31991;DHT22;18508;49.386;8.370;2024-01-27T14:16:34;8.00;99.90
31991;DHT22;18508;49.386;8.370;2024-01-27T14:19:02;7.70;99.90
31991;DHT22;18508;49.386;8.370;2024-01-27T14:21:31;7.40;99.90
31991;DHT22;18508;49.386;8.370;2024-01-27T14:26:32;8.10;99.90
31991;DHT22;18508;49.386;8.370;2024-01-27T14:29:01;7.70;99.90
31991;DHT22;18508;49.386;8.370;2024-01-27T14:31:33;7.70;99.90
31991;DHT22;18508;49.386;8.370;2024-01-27T14:36:30;7.90;99.90
31991;DHT22;18508;49.386;8.370;2024-01-27T14:38:58;8.20;99.90
31991;DHT22;18508;49.386;8.370;2024-01-27T14:41:27;7.70;99.90
31991;DHT22;18508;49.386;8.370;2024-01-27T14:46:24;7.50;99.90
31991;DHT22;18508;49.386;8.370;2024-01-27T14:48:53;7.50;99.90
31991;DHT22;18508;49.386;8.370;2024-01-27T14:51:22;7.70;99.90
31991;DHT22;18508;49.386;8.370;2024-01-27T14:56:20;7.20;99.90
31991;DHT22;18508;49.386;8.370;2024-01-27T14:58:48;7.50;99.90
31991;DHT22;18508;49.386;8.370;2024-01-27T15:01:18;7.90;99.90
31991;DHT22;18508;49.386;8.370;2024-01-27T15:03:46;7.80;99.90
31991;DHT22;18508;49.386;8.370;2024-01-27T15:06:16;7.80;99.90
31991;DHT22;18508;49.386;8.370;2024-01-27T15:08:44;7.60;99.90
31991;DHT22;18508;49.386;8.370;2024-01-27T15:11:13;7.70;99.90
31991;DHT22;18508;49.386;8.370;2024-01-27T15:13:42;7.60;99.90
31991;DHT22;18508;49.386;8.370;2024-01-27T15:18:39;7.50;99.90
31991;DHT22;18508;49.386;8.370;2024-01-27T15:21:11;7.30;99.90
31991;DHT22;18508;49.386;8.370;2024-01-27T15:23:40;7.50;99.90
31991;DHT22;18508;49.386;8.370;2024-01-27T15:26:10;7.20;99.90
31991;DHT22;18508;49.386;8.370;2024-01-27T15:28:38;6.80;99.90
31991;DHT22;18508;49.386;8.370;2024-01-27T15:31:07;6.90;99.90
31991;DHT22;18508;49.386;8.370;2024-01-27T15:36:05;7.20;99.90
31991;DHT22;18508;49.386;8.370;2024-01-27T15:38:34;7.50;99.90
31991;DHT22;18508;49.386;8.370;2024-01-27T15:41:05;6.80;99.90
31991;DHT22;18508;49.386;8.370;2024-01-27T15:46:02;6.10;99.90
31991;DHT22;18508;49.386;8.370;2024-01-27T15:48:33;7.20;99.90
31991;DHT22;18508;49.386;8.370;2024-01-27T15:55:58;5.80;99.90
31991;DHT22;18508;49.386;8.370;2024-01-27T15:58:28;6.00;99.90
31991;DHT22;18508;49.386;8.370;2024-01-27T16:08:23;5.40;99.90
31991;DHT22;18508;49.386;8.370;2024-01-27T16:10:51;5.30;99.90
31991;DHT22;18508;49.386;8.370;2024-01-27T16:13:22;5.00;99.90
31991;DHT22;18508;49.386;8.370;2024-01-27T16:15:51;5.30;99.90
31991;DHT22;18508;49.386;8.370;2024-01-27T16:18:20;4.90;99.90
31991;DHT22;18508;49.386;8.370;2024-01-27T16:20:48;4.80;99.90
31991;DHT22;18508;49.386;8.370;2024-01-27T16:23:16;4.90;99.90
31991;DHT22;18508;49.386;8.370;2024-01-27T16:25:46;4.80;99.90
31991;DHT22;18508;49.386;8.370;2024-01-27T16:28:15;4.50;99.90
31991;DHT22;18508;49.386;8.370;2024-01-27T16:30:46;4.20;99.90
31991;DHT22;18508;49.386;8.370;2024-01-27T16:33:17;4.50;99.90
31991;DHT22;18508;49.386;8.370;2024-01-27T16:35:45;4.80;99.90
31991;DHT22;18508;49.386;8.370;2024-01-27T16:40:42;4.50;99.90
31991;DHT22;18508;49.386;8.370;2024-01-27T16:43:10;4.20;99.90
31991;DHT22;18508;49.386;8.370;2024-01-27T16:45:38;4.10;99.90
31991;DHT22;18508;49.386;8.370;2024-01-27T16:50:38;3.80;1.00
31991;DHT22;18508;49.386;8.370;2024-01-27T16:58:07;4.00;1.00
31991;DHT22;18508;49.386;8.370;2024-01-27T17:00:35;4.00;99.90
31991;DHT22;18508;49.386;8.370;2024-01-27T17:08:02;3.40;99.90
31991;DHT22;18508;49.386;8.370;2024-01-27T17:10:31;3.50;99.90
31991;DHT22;18508;49.386;8.370;2024-01-27T17:13:01;2.90;99.90
31991;DHT22;18508;49.386;8.370;2024-01-27T17:15:29;3.00;99.90
31991;DHT22;18508;49.386;8.370;2024-01-27T17:17:57;3.20;99.90
31991;DHT22;18508;49.386;8.370;2024-01-27T17:20:26;3.20;99.90
31991;DHT22;18508;49.386;8.370;2024-01-27T17:25:24;2.90;99.90
31991;DHT22;18508;49.386;8.370;2024-01-27T17:35:19;2.60;99.90
31991;DHT22;18508;49.386;8.370;2024-01-27T17:42:46;2.60;99.90
31991;DHT22;18508;49.386;8.370;2024-01-27T17:45:15;2.80;99.90
31991;DHT22;18508;49.386;8.370;2024-01-27T17:47:46;2.60;99.90
31991;DHT22;18508;49.386;8.370;2024-01-27T18:00:16;2.20;99.90
31991;DHT22;18508;49.386;8.370;2024-01-27T18:02:48;1.60;99.90
31991;DHT22;18508;49.386;8.370;2024-01-27T18:10:12;1.90;99.90
31991;DHT22;18508;49.386;8.370;2024-01-27T18:17:40;1.90;99.90
31991;DHT22;18508;49.386;8.370;2024-01-27T18:25:06;2.00;99.90
31991;DHT22;18508;49.386;8.370;2024-01-27T18:30:09;1.60;99.90
31991;DHT22;18508;49.386;8.370;2024-01-27T18:32:40;3.90;99.90
31991;DHT22;18508;49.386;8.370;2024-01-27T18:37:39;1.70;99.90
31991;DHT22;18508;49.386;8.370;2024-01-27T18:40:09;0.80;99.90
31991;DHT22;18508;49.386;8.370;2024-01-27T18:45:06;1.50;99.90
31991;DHT22;18508;49.386;8.370;2024-01-27T18:50:10;1.50;99.90
31991;DHT22;18508;49.386;8.370;2024-01-27T18:52:39;1.30;99.90
31991;DHT22;18508;49.386;8.370;2024-01-27T18:57:36;1.60;99.90
31991;DHT22;18508;49.386;8.370;2024-01-27T19:00:05;1.40;99.90
31991;DHT22;18508;49.386;8.370;2024-01-27T19:07:36;1.20;99.90
31991;DHT22;18508;49.386;8.370;2024-01-27T19:10:05;1.00;99.90
31991;DHT22;18508;49.386;8.370;2024-01-27T19:12:34;1.20;99.90
31991;DHT22;18508;49.386;8.370;2024-01-27T19:17:32;1.20;99.90
31991;DHT22;18508;49.386;8.370;2024-01-27T19:25:00;1.10;99.90
31991;DHT22;18508;49.386;8.370;2024-01-27T19:29:58;1.20;99.90
31991;DHT22;18508;49.386;8.370;2024-01-27T19:37:24;1.20;99.90
31991;DHT22;18508;49.386;8.370;2024-01-27T19:39:54;1.10;99.90
31991;DHT22;18508;49.386;8.370;2024-01-27T19:42:24;1.10;99.90
31991;DHT22;18508;49.386;8.370;2024-01-27T19:47:21;0.70;99.90
31991;DHT22;18508;49.386;8.370;2024-01-27T19:52:23;0.80;99.90
31991;DHT22;18508;49.386;8.370;2024-01-27T19:59:50;1.00;99.90
31991;DHT22;18508;49.386;8.370;2024-01-27T20:07:22;1.10;99.90
31991;DHT22;18508;49.386;8.370;2024-01-27T20:14:53;1.10;99.90
31991;DHT22;18508;49.386;8.370;2024-01-27T20:22:22;1.40;99.90
31991;DHT22;18508;49.386;8.370;2024-01-27T20:32:17;1.10;99.90
31991;DHT22;18508;49.386;8.370;2024-01-27T20:42:15;0.60;99.90
31991;DHT22;18508;49.386;8.370;2024-01-27T20:49:42;0.90;99.90
31991;DHT22;18508;49.386;8.370;2024-01-27T20:54:38;1.00;99.90
31991;DHT22;18508;49.386;8.370;2024-01-27T20:57:09;0.70;99.90
31991;DHT22;18508;49.386;8.370;2024-01-27T21:07:04;0.70;99.90
31991;DHT22;18508;49.386;8.370;2024-01-27T21:09:33;0.40;99.90
31991;DHT22;18508;49.386;8.370;2024-01-27T21:24:27;0.40;99.90
31991;DHT22;18508;49.386;8.370;2024-01-27T21:41:47;0.20;99.90
31991;DHT22;18508;49.386;8.370;2024-01-27T21:51:46;0.10;99.90
31991;DHT22;18508;49.386;8.370;2024-01-27T21:56:43;0.40;99.90
31991;DHT22;18508;49.386;8.370;2024-01-27T21:59:13;-0.20;99.90
31991;DHT22;18508;49.386;8.370;2024-01-27T22:16:40;0.00;99.90
31991;DHT22;18508;49.386;8.370;2024-01-27T22:31:32;0.00;99.90
31991;DHT22;18508;49.386;8.370;2024-01-27T22:34:02;-0.10;99.90
31991;DHT22;18508;49.386;8.370;2024-01-27T22:38:59;-0.10;99.90
31991;DHT22;18508;49.386;8.370;2024-01-27T22:41:28;0.20;99.90
31991;DHT22;18508;49.386;8.370;2024-01-27T22:51:24;-0.70;99.90
31991;DHT22;18508;49.386;8.370;2024-01-27T22:53:53;-0.30;99.90
31991;DHT22;18508;49.386;8.370;2024-01-27T23:01:19;-0.30;99.90
31991;DHT22;18508;49.386;8.370;2024-01-27T23:03:49;-0.50;99.90
31991;DHT22;18508;49.386;8.370;2024-01-27T23:08:48;-0.30;99.90
31991;DHT22;18508;49.386;8.370;2024-01-27T23:26:12;-0.40;99.90
31991;DHT22;18508;49.386;8.370;2024-01-27T23:28:40;-0.30;99.90
31991;DHT22;18508;49.386;8.370;2024-01-27T23:33:40;-0.50;99.90
31991;DHT22;18508;49.386;8.370;2024-01-27T23:43:37;-0.10;99.90
31991;DHT22;18508;49.386;8.370;2024-01-27T23:51:03;-0.10;99.90
31991;DHT22;18508;49.386;8.370;2024-01-27T23:56:03;-0.10;99.90
